createdAt,value
2018-07-16T03:47:25.110Z,35.1
2018-07-16T03:48:15.524Z,35
2018-07-16T03:49:04.420Z,35.1
2018-07-16T03:49:55.027Z,35
2018-07-16T03:50:45.407Z,35.1
2018-07-16T03:51:35.210Z,35
2018-07-16T03:52:25.505Z,35.1
2018-07-16T03:53:14.752Z,35
2018-07-16T03:54:05.075Z,35.1
2018-07-16T03:54:54.923Z,35
2018-07-16T03:55:45.927Z,35
2018-07-16T03:56:35.594Z,35
2018-07-16T03:57:25.631Z,35
2018-07-16T03:58:16.005Z,35
2018-07-16T03:59:06.039Z,35
2018-07-16T03:59:55.825Z,35
2018-07-16T04:00:45.917Z,35
2018-07-16T04:01:36.624Z,35
2018-07-16T04:02:26.023Z,34.9
2018-07-16T04:03:16.004Z,35
2018-07-16T04:04:05.868Z,34.9
2018-07-16T04:04:56.229Z,34.9
2018-07-16T04:05:46.299Z,34.9
2018-07-16T04:06:36.342Z,34.9
2018-07-16T04:07:26.719Z,34.9
2018-07-16T04:08:16.222Z,34.9
2018-07-16T04:09:06.246Z,34.9
2018-07-16T04:09:56.607Z,34.9
2018-07-16T04:10:46.941Z,34.9
2018-07-16T04:11:36.519Z,34.9
2018-07-16T04:12:27.083Z,34.9
2018-07-16T04:13:16.293Z,34.9
2018-07-16T04:14:06.933Z,34.9
2018-07-16T04:14:56.687Z,34.9
2018-07-16T04:15:46.753Z,34.9
2018-07-16T04:16:37.395Z,34.9
2018-07-16T04:17:27.165Z,34.8
2018-07-16T04:18:16.811Z,34.9
2018-07-16T04:19:06.803Z,34.8
2018-07-16T04:19:56.803Z,34.8
2018-07-16T04:20:47.139Z,34.8
2018-07-16T04:21:37.733Z,34.8
2018-07-16T04:22:27.250Z,34.8
2018-07-16T04:23:17.858Z,34.8
2018-07-16T04:24:07.648Z,34.8
2018-07-16T04:24:57.457Z,34.8
2018-07-16T04:25:47.522Z,34.8
2018-07-16T04:26:37.832Z,34.8
2018-07-16T04:27:28.198Z,34.8
2018-07-16T04:28:17.428Z,34.8
2018-07-16T04:29:08.075Z,34.8
2018-07-16T04:29:57.628Z,34.8
2018-07-16T04:30:48.203Z,34.8
2018-07-16T04:31:37.195Z,34.8
2018-07-16T04:32:27.325Z,34.8
2018-07-16T04:33:17.865Z,34.8
2018-07-16T04:34:07.867Z,34.8
2018-07-16T04:34:58.828Z,34.8
2018-07-16T04:35:48.577Z,34.8
2018-07-16T04:36:38.095Z,34.7
2018-07-16T04:37:28.527Z,34.7
2018-07-16T04:38:18.810Z,34.7
2018-07-16T04:39:08.279Z,34.7
2018-07-16T04:40:00.643Z,34.7
2018-07-16T04:40:48.944Z,34.7
2018-07-16T04:41:39.011Z,34.7
2018-07-16T04:42:29.103Z,34.7
2018-07-16T04:43:19.230Z,34.6
2018-07-16T04:44:09.528Z,34.7
2018-07-16T04:44:58.973Z,34.6
2018-07-16T04:45:49.352Z,34.6
2018-07-16T04:46:39.128Z,34.6
2018-07-16T04:47:29.172Z,34.6
2018-07-16T04:48:19.508Z,34.6
2018-07-16T04:49:09.907Z,34.6
2018-07-16T04:49:59.909Z,34.6
2018-07-16T04:50:48.680Z,34.6
2018-07-16T04:51:39.754Z,34.6
2018-07-16T04:52:30.104Z,34.6
2018-07-16T04:53:20.172Z,34.6
2018-07-16T04:54:09.962Z,34.6
2018-07-16T04:54:59.990Z,34.6
2018-07-16T04:55:49.647Z,34.6
2018-07-16T04:56:40.425Z,34.6
2018-07-16T04:57:30.506Z,34.6
2018-07-16T04:58:20.527Z,34.6
2018-07-16T04:59:10.397Z,34.6
2018-07-16T05:00:00.717Z,34.6
2018-07-16T05:00:50.795Z,34.6
2018-07-16T05:01:40.865Z,34.5
2018-07-16T05:02:30.849Z,34.5
2018-07-16T05:03:22.364Z,34.5
2018-07-16T05:04:10.804Z,34.5
2018-07-16T05:05:01.045Z,34.5
2018-07-16T05:05:50.842Z,34.5
2018-07-16T05:06:40.911Z,34.5
2018-07-16T05:07:31.224Z,34.5
2018-07-16T05:08:21.069Z,34.5
2018-07-16T05:09:11.407Z,34.5
2018-07-16T05:10:01.523Z,34.5
2018-07-16T05:10:50.769Z,34.4
2018-07-16T05:11:41.322Z,34.4
2018-07-16T05:12:31.121Z,34.5
2018-07-16T05:13:21.448Z,34.4
2018-07-16T05:14:11.522Z,34.4
2018-07-16T05:15:01.882Z,34.4
2018-07-16T05:15:51.346Z,34.4
2018-07-16T05:16:41.720Z,34.4
2018-07-16T05:17:32.088Z,34.4
2018-07-16T05:18:24.414Z,34.4
2018-07-16T05:19:11.927Z,34.4
2018-07-16T05:20:02.311Z,34.4
2018-07-16T05:20:52.025Z,34.4
2018-07-16T05:21:42.377Z,34.4
2018-07-16T05:22:32.416Z,34.4
2018-07-16T05:23:22.485Z,34.4
2018-07-16T05:24:13.368Z,34.4
2018-07-16T05:25:02.665Z,34.4
2018-07-16T05:25:52.672Z,34.4
2018-07-16T05:26:42.459Z,34.4
2018-07-16T05:27:32.009Z,34.4
2018-07-16T05:28:22.589Z,34.4
2018-07-16T05:29:12.645Z,34.4
2018-07-16T05:30:02.537Z,34.4
2018-07-16T05:30:52.218Z,34.4
2018-07-16T05:31:43.562Z,34.3
2018-07-16T05:32:37.015Z,34.3
2018-07-16T05:33:22.960Z,34.3
2018-07-16T05:34:13.309Z,34.3
2018-07-16T05:35:03.375Z,34.3
2018-07-16T05:35:53.129Z,34.3
2018-07-16T05:36:43.219Z,34.3
2018-07-16T05:37:33.608Z,34.3
2018-07-16T05:38:24.184Z,34.3
2018-07-16T05:39:13.671Z,34.3
2018-07-16T05:40:03.770Z,34.3
2018-07-16T05:40:53.811Z,34.3
2018-07-16T05:41:43.926Z,34.3
2018-07-16T05:42:33.398Z,34.3
2018-07-16T05:43:23.790Z,34.2
2018-07-16T05:44:14.101Z,34.1
2018-07-16T05:45:03.669Z,34.1
2018-07-16T05:45:53.673Z,34.1
2018-07-16T05:46:44.025Z,34
2018-07-16T05:47:34.077Z,33.9
2018-07-16T05:48:24.128Z,33.9
2018-07-16T05:49:14.515Z,33.9
2018-07-16T05:50:03.531Z,33.9
2018-07-16T05:50:54.595Z,33.8
2018-07-16T05:51:44.377Z,33.8
2018-07-16T05:52:33.948Z,33.8
2018-07-16T05:53:24.831Z,33.8
2018-07-16T05:54:14.886Z,33.8
2018-07-16T05:55:04.657Z,33.8
2018-07-16T05:55:55.015Z,33.8
2018-07-16T05:56:44.822Z,33.8
2018-07-16T05:57:35.142Z,33.8
2018-07-16T05:58:26.010Z,33.8
2018-07-16T05:59:15.238Z,34
2018-07-16T06:00:04.805Z,40.2
2018-07-16T06:00:55.085Z,39.8
2018-07-16T06:01:45.428Z,42.1
2018-07-16T06:02:35.289Z,43.4
2018-07-16T06:03:25.263Z,43.1
2018-07-16T06:04:15.600Z,42.3
2018-07-16T06:05:05.422Z,41.5
2018-07-16T06:05:55.758Z,41.1
2018-07-16T06:06:45.594Z,40.7
2018-07-16T06:07:35.870Z,40.4
2018-07-16T06:08:25.669Z,40.1
2018-07-16T06:09:15.987Z,39.9
2018-07-16T06:10:05.604Z,39.7
2018-07-16T06:10:56.131Z,39.4
2018-07-16T06:11:46.190Z,39.3
2018-07-16T06:12:35.795Z,39
2018-07-16T06:13:25.789Z,38.8
2018-07-16T06:14:16.397Z,38.6
2018-07-16T06:15:05.957Z,38.5
2018-07-16T06:15:55.973Z,38.3
2018-07-16T06:16:46.482Z,38.2
2018-07-16T06:17:36.093Z,38
2018-07-16T06:18:25.895Z,37.9
2018-07-16T06:19:16.295Z,37.8
2018-07-16T06:20:06.880Z,37.6
2018-07-16T06:20:56.472Z,38.4
2018-07-16T06:21:45.581Z,42.2
2018-07-16T06:22:36.787Z,42.4
2018-07-16T06:23:26.599Z,44.7
2018-07-16T06:24:16.377Z,45.4
2018-07-16T06:25:07.342Z,45.3
2018-07-16T06:25:57.044Z,45
2018-07-16T06:26:47.073Z,44.9
2018-07-16T06:27:36.885Z,44.9
2018-07-16T06:28:26.640Z,45.2
2018-07-16T06:29:17.542Z,45.5
2018-07-16T06:30:07.104Z,45.7
2018-07-16T06:30:57.403Z,45.8
2018-07-16T06:31:47.767Z,45.8
2018-07-16T06:32:38.419Z,45.9
2018-07-16T06:33:27.875Z,45.9
2018-07-16T06:34:17.731Z,46.1
2018-07-16T06:35:08.071Z,46.1
2018-07-16T06:35:57.803Z,46.3
2018-07-16T06:36:47.334Z,46.4
2018-07-16T06:37:37.694Z,46.4
2018-07-16T06:38:28.262Z,46.6
2018-07-16T06:39:18.043Z,46.6
2018-07-16T06:40:09.479Z,46.7
2018-07-16T06:41:01.411Z,46.8
2018-07-16T06:41:48.494Z,46.9
2018-07-16T06:42:38.292Z,46.9
2018-07-16T06:43:28.090Z,47.1
2018-07-16T06:44:18.461Z,47.1
2018-07-16T06:45:08.562Z,47.2
2018-07-16T06:45:58.267Z,47.3
2018-07-16T06:46:48.873Z,47.4
2018-07-16T06:47:38.157Z,47.4
2018-07-16T06:48:28.775Z,47.5
2018-07-16T06:49:18.833Z,47.6
2018-07-16T06:50:09.189Z,47.7
2018-07-16T06:50:58.946Z,47.8
2018-07-16T06:51:48.738Z,47.8
2018-07-16T06:52:39.369Z,47.9
2018-07-16T06:53:29.413Z,47.9
2018-07-16T06:54:19.248Z,48.1
2018-07-16T06:55:09.935Z,48.1
2018-07-16T06:55:59.338Z,48.2
2018-07-16T06:56:48.872Z,48.3
2018-07-16T06:57:39.731Z,48.4
2018-07-16T06:58:29.820Z,48.5
2018-07-16T06:59:19.884Z,48.6
2018-07-16T07:00:09.651Z,48.7
2018-07-16T07:01:00.037Z,48.8
2018-07-16T07:01:49.331Z,48.9
2018-07-16T07:02:39.720Z,48.9
2018-07-16T07:03:29.729Z,49
2018-07-16T07:04:19.528Z,49.1
2018-07-16T07:05:09.595Z,49.2
2018-07-16T07:05:59.701Z,49.3
2018-07-16T07:06:48.604Z,49.4
2018-07-16T07:07:40.067Z,49.5
2018-07-16T07:08:30.042Z,49.6
2018-07-16T07:09:20.132Z,49.7
2018-07-16T07:10:11.908Z,49.8
2018-07-16T07:11:00.532Z,49.8
2018-07-16T07:11:50.897Z,49.9
2018-07-16T07:12:40.909Z,50.1
2018-07-16T07:13:31.002Z,50.2
2018-07-16T07:14:21.035Z,50.3
2018-07-16T07:15:10.369Z,50.4
2018-07-16T07:16:01.175Z,50.4
2018-07-16T07:16:50.684Z,50.6
2018-07-16T07:17:41.066Z,50.6
2018-07-16T07:18:30.810Z,50.7
2018-07-16T07:19:20.872Z,50.8
2018-07-16T07:20:10.938Z,50.9
2018-07-16T07:21:00.777Z,50.9
2018-07-16T07:21:51.131Z,51.1
2018-07-16T07:22:40.555Z,51.1
2018-07-16T07:23:30.460Z,51.3
2018-07-16T07:24:21.794Z,51.3
2018-07-16T07:25:10.744Z,51.4
2018-07-16T07:26:01.377Z,51.6
2018-07-16T07:26:50.754Z,51.6
2018-07-16T07:27:41.225Z,51.8
2018-07-16T07:28:31.365Z,51.8
2018-07-16T07:30:10.957Z,52.1
2018-07-16T07:31:01.585Z,52.1
2018-07-16T07:31:51.638Z,52.3
2018-07-16T07:32:41.142Z,52.3
2018-07-16T07:33:31.501Z,52.4
2018-07-16T07:34:21.931Z,52.5
2018-07-16T07:35:13.985Z,52.6
2018-07-16T07:36:03.064Z,52.7
2018-07-16T07:36:52.793Z,52.8
2018-07-16T07:37:42.070Z,52.9
2018-07-16T07:38:32.666Z,53
2018-07-16T07:39:22.483Z,53.1
2018-07-16T07:40:13.044Z,53.1
2018-07-16T07:41:02.863Z,53.3
2018-07-16T07:41:53.165Z,53.3
2018-07-16T07:42:42.707Z,53.4
2018-07-16T07:43:32.784Z,53.5
2018-07-16T07:44:22.327Z,53.6
2018-07-16T07:45:12.866Z,53.7
2018-07-16T07:46:03.240Z,53.8
2018-07-16T07:46:53.585Z,53.9
2018-07-16T07:47:43.668Z,53.9
2018-07-16T07:48:33.141Z,54.1
2018-07-16T07:49:22.988Z,54.2
2018-07-16T07:50:13.211Z,54.3
2018-07-16T07:51:03.053Z,54.4
2018-07-16T07:51:53.466Z,54.4
2018-07-16T07:52:43.993Z,54.6
2018-07-16T07:53:33.496Z,54.6
2018-07-16T07:54:26.614Z,54.8
2018-07-16T07:55:20.972Z,54.8
2018-07-16T07:56:04.254Z,54.9
2018-07-16T07:56:54.338Z,55
2018-07-16T07:57:43.839Z,55.1
2018-07-16T07:58:33.896Z,55
2018-07-16T07:59:24.365Z,54.8
2018-07-16T08:00:13.461Z,54.5
2018-07-16T08:01:04.653Z,54.4
2018-07-16T08:01:54.456Z,54.8
2018-07-16T08:02:43.955Z,55
2018-07-16T08:03:34.320Z,55.3
2018-07-16T08:04:24.622Z,55.4
2018-07-16T08:05:14.761Z,55.5
2018-07-16T08:06:04.876Z,55.6
2018-07-16T08:06:54.837Z,55.7
2018-07-16T08:07:45.170Z,55.8
2018-07-16T08:08:34.197Z,55.9
2018-07-16T08:09:27.007Z,56
2018-07-16T08:10:15.142Z,56.1
2018-07-16T08:11:04.956Z,56.2
2018-07-16T08:11:55.374Z,56.3
2018-07-16T08:12:46.161Z,56.4
2018-07-16T08:13:35.563Z,56.4
2018-07-16T08:14:25.200Z,56.6
2018-07-16T08:15:14.690Z,56.6
2018-07-16T08:16:05.472Z,56.7
2018-07-16T08:16:55.959Z,56.8
2018-07-16T08:17:45.233Z,56.8
2018-07-16T08:18:37.549Z,56.9
2018-07-16T08:19:26.161Z,57
2018-07-16T08:20:15.620Z,57.1
2018-07-16T08:21:06.643Z,57.2
2018-07-16T08:21:57.283Z,57.3
2018-07-16T08:22:45.363Z,57.3
2018-07-16T08:23:36.491Z,57.4
2018-07-16T08:24:26.025Z,57.5
2018-07-16T08:25:16.658Z,57.6
2018-07-16T08:26:05.934Z,57.6
2018-07-16T08:26:55.896Z,57.7
2018-07-16T08:28:36.044Z,57.9
2018-07-16T08:29:26.988Z,57.9
2018-07-16T08:30:17.043Z,58
2018-07-16T08:31:06.873Z,58.1
2018-07-16T08:31:56.873Z,58.1
2018-07-16T08:32:46.629Z,58.2
2018-07-16T08:33:37.655Z,58.3
2018-07-16T08:34:26.876Z,58.4
2018-07-16T08:35:16.920Z,58.4
2018-07-16T08:36:07.494Z,58.4
2018-07-16T08:37:47.362Z,58.6
2018-07-16T08:38:37.742Z,58.6
2018-07-16T08:39:27.752Z,58.7
2018-07-16T08:40:18.383Z,58.8
2018-07-16T08:41:07.279Z,58.9
2018-07-16T08:41:57.622Z,58.9
2018-07-16T08:42:47.664Z,58.9
2018-07-16T08:43:37.730Z,59.1
2018-07-16T08:44:28.088Z,59.1
2018-07-16T08:45:17.614Z,59.2
2018-07-16T08:46:07.887Z,59.3
2018-07-16T08:46:57.912Z,59.3
2018-07-16T08:47:48.243Z,59.3
2018-07-16T08:48:38.304Z,59.3
2018-07-16T08:49:28.376Z,59.4
2018-07-16T08:50:18.453Z,59.4
2018-07-16T08:51:08.228Z,59.5
2018-07-16T08:51:58.560Z,59.6
2018-07-16T08:52:49.142Z,59.6
2018-07-16T08:53:38.696Z,59.7
2018-07-16T08:54:27.918Z,59.7
2018-07-16T08:55:18.831Z,59.8
2018-07-16T08:56:08.432Z,59.9
2018-07-16T08:56:58.955Z,59.9
2018-07-16T08:57:49.042Z,59.9
2018-07-16T08:58:39.174Z,60
2018-07-16T08:59:28.921Z,60.1
2018-07-16T09:00:19.061Z,60.1
2018-07-16T09:01:09.010Z,60.2
2018-07-16T09:01:58.572Z,60.3
2018-07-16T09:02:49.456Z,60.3
2018-07-16T09:03:39.218Z,60.4
2018-07-16T09:04:29.108Z,60.4
2018-07-16T09:05:19.414Z,60.5
2018-07-16T09:06:08.986Z,60.6
2018-07-16T09:06:59.392Z,60.6
2018-07-16T09:07:49.562Z,60.7
2018-07-16T09:08:39.882Z,60.7
2018-07-16T09:09:29.728Z,60.8
2018-07-16T09:10:19.180Z,60.8
2018-07-16T09:11:10.392Z,60.8
2018-07-16T09:11:59.626Z,60.9
2018-07-16T09:12:49.982Z,61
2018-07-16T09:13:41.079Z,61.1
2018-07-16T09:14:30.102Z,61.1
2018-07-16T09:15:20.092Z,61.1
2018-07-16T09:16:09.887Z,61.2
2018-07-16T09:17:01.338Z,61.2
2018-07-16T09:17:50.572Z,61.3
2018-07-16T09:18:40.365Z,61.3
2018-07-16T09:19:30.425Z,61.4
2018-07-16T09:20:20.026Z,61.4
2018-07-16T09:21:10.606Z,61.5
2018-07-16T09:22:00.627Z,61.6
2018-07-16T09:22:50.383Z,61.7
2018-07-16T09:23:41.083Z,61.8
2018-07-16T09:24:31.073Z,61.8
2018-07-16T09:25:20.369Z,61.8
2018-07-16T09:26:10.939Z,61.9
2018-07-16T09:27:00.811Z,61.9
2018-07-16T09:27:51.381Z,61.9
2018-07-16T09:28:41.433Z,62
2018-07-16T09:29:31.463Z,62.1
2018-07-16T09:30:20.795Z,62.1
2018-07-16T09:31:11.416Z,62.2
2018-07-16T09:32:01.660Z,62.3
2018-07-16T09:32:53.014Z,62.3
2018-07-16T09:33:41.578Z,62.4
2018-07-16T09:34:31.841Z,62.4
2018-07-16T09:35:22.021Z,62.5
2018-07-16T09:36:11.263Z,62.6
2018-07-16T09:37:01.556Z,62.6
2018-07-16T09:37:51.875Z,62.6
2018-07-16T09:38:41.912Z,62.6
2018-07-16T09:39:32.008Z,62.7
2018-07-16T09:40:21.575Z,62.8
2018-07-16T09:41:11.851Z,62.9
2018-07-16T09:42:01.918Z,62.9
2018-07-16T09:42:51.708Z,63
2018-07-16T09:43:41.953Z,63
2018-07-16T09:44:33.661Z,63.1
2018-07-16T09:45:22.445Z,63.1
2018-07-16T09:46:12.590Z,63.2
2018-07-16T09:47:02.071Z,63.3
2018-07-16T09:47:52.911Z,63.3
2018-07-16T09:48:42.694Z,63.3
2018-07-16T09:49:33.080Z,63.4
2018-07-16T09:50:22.644Z,63.4
2018-07-16T09:51:13.194Z,63.5
2018-07-16T09:52:03.048Z,63.6
2018-07-16T09:52:53.084Z,63.6
2018-07-16T09:53:42.803Z,63.6
2018-07-16T09:54:32.873Z,63.7
2018-07-16T09:55:23.495Z,63.7
2018-07-16T09:56:13.938Z,63.8
2018-07-16T09:57:03.367Z,63.8
2018-07-16T09:57:53.135Z,63.9
2018-07-16T09:58:43.236Z,63.9
2018-07-16T09:59:33.324Z,64
2018-07-16T10:00:23.633Z,64
2018-07-16T10:01:13.687Z,64.1
2018-07-16T10:02:03.183Z,64.1
2018-07-16T10:02:53.505Z,64.2
2018-07-16T10:03:43.290Z,64.3
2018-07-16T10:04:33.932Z,64.3
2018-07-16T10:05:23.723Z,64.4
2018-07-16T10:06:13.750Z,64.4
2018-07-16T10:07:04.357Z,64.4
2018-07-16T10:07:54.436Z,64.5
2018-07-16T10:08:44.544Z,64.6
2018-07-16T10:09:34.357Z,64.6
2018-07-16T10:10:24.099Z,64.7
2018-07-16T10:11:14.765Z,64.7
2018-07-16T10:12:04.514Z,64.8
2018-07-16T10:12:54.153Z,64.9
2018-07-16T10:13:44.710Z,64.9
2018-07-16T10:14:34.442Z,64.9
2018-07-16T10:15:24.830Z,65
2018-07-16T10:16:15.159Z,65.1
2018-07-16T10:17:04.480Z,65.2
2018-07-16T10:17:54.985Z,65.1
2018-07-16T10:18:44.489Z,65.2
2018-07-16T10:19:35.353Z,65.3
2018-07-16T10:20:24.154Z,65.3
2018-07-16T10:21:15.254Z,65.3
2018-07-16T10:22:05.349Z,65.3
2018-07-16T10:22:54.544Z,65.4
2018-07-16T10:23:45.157Z,65.4
2018-07-16T10:24:35.514Z,65.4
2018-07-16T10:25:25.281Z,65.6
2018-07-16T10:26:15.916Z,65.6
2018-07-16T10:27:05.672Z,65.6
2018-07-16T10:27:55.457Z,65.7
2018-07-16T10:28:45.624Z,65.8
2018-07-16T10:29:34.759Z,65.8
2018-07-16T10:30:25.644Z,65.8
2018-07-16T10:31:16.284Z,65.9
2018-07-16T10:32:06.057Z,66
2018-07-16T10:32:56.003Z,65.9
2018-07-16T10:33:46.930Z,66
2018-07-16T10:34:35.692Z,66.1
2018-07-16T10:35:26.065Z,66.1
2018-07-16T10:36:16.424Z,66.2
2018-07-16T10:37:05.898Z,66.3
2018-07-16T10:37:56.566Z,66.3
2018-07-16T10:38:46.832Z,66.3
2018-07-16T10:39:37.073Z,66.4
2018-07-16T10:40:26.434Z,66.4
2018-07-16T10:41:16.784Z,66.4
2018-07-16T10:42:06.856Z,66.4
2018-07-16T10:42:57.166Z,66.5
2018-07-16T10:43:46.672Z,66.6
2018-07-16T10:44:37.008Z,66.6
2018-07-16T10:45:27.433Z,66.6
2018-07-16T10:46:16.902Z,66.7
2018-07-16T10:47:07.233Z,66.7
2018-07-16T10:47:56.508Z,66.7
2018-07-16T10:48:46.796Z,66.8
2018-07-16T10:49:37.333Z,66.7
2018-07-16T10:50:27.835Z,66.8
2018-07-16T10:51:17.635Z,66.8
2018-07-16T10:52:07.350Z,66.9
2018-07-16T10:52:57.674Z,66.9
2018-07-16T10:53:48.010Z,66.9
2018-07-16T10:54:38.075Z,67
2018-07-16T10:55:27.991Z,67.1
2018-07-16T10:56:17.942Z,67.1
2018-07-16T10:57:08.013Z,67.2
2018-07-16T10:57:57.614Z,67.2
2018-07-16T10:58:48.402Z,67.3
2018-07-16T10:59:38.451Z,67.3
2018-07-16T11:00:28.017Z,67.3
2018-07-16T11:01:17.746Z,67.3
2018-07-16T11:02:08.076Z,67.4
2018-07-16T11:02:58.866Z,67.4
2018-07-16T11:03:48.799Z,67.4
2018-07-16T11:04:38.561Z,67.5
2018-07-16T11:05:30.141Z,67.5
2018-07-16T11:06:18.991Z,67.6
2018-07-16T11:07:08.412Z,67.6
2018-07-16T11:07:59.159Z,67.5
2018-07-16T11:08:49.176Z,67.3
2018-07-16T11:09:39.239Z,67.4
2018-07-16T11:10:29.343Z,67.6
2018-07-16T11:11:19.115Z,67.6
2018-07-16T11:12:09.022Z,67.6
2018-07-16T11:12:59.517Z,67.6
2018-07-16T11:13:49.621Z,67.3
2018-07-16T11:14:39.093Z,67.1
2018-07-16T11:15:29.135Z,67.3
2018-07-16T11:16:19.736Z,67.5
2018-07-16T11:17:09.011Z,67.7
2018-07-16T11:17:59.909Z,67.8
2018-07-16T11:18:49.666Z,67.8
2018-07-16T11:19:40.029Z,67.8
2018-07-16T11:20:29.508Z,67.9
2018-07-16T11:21:19.575Z,67.9
2018-07-16T11:22:09.939Z,68
2018-07-16T11:23:00.266Z,68
2018-07-16T11:23:50.058Z,68.1
2018-07-16T11:24:39.845Z,68.1
2018-07-16T11:25:29.920Z,68.1
2018-07-16T11:26:19.719Z,68.1
2018-07-16T11:27:09.198Z,68.3
2018-07-16T11:28:00.681Z,68.3
2018-07-16T11:28:50.168Z,68.3
2018-07-16T11:29:40.264Z,68.3
2018-07-16T11:30:30.631Z,68.3
2018-07-16T11:31:20.648Z,68.3
2018-07-16T11:32:10.968Z,68.4
2018-07-16T11:33:00.782Z,68.4
2018-07-16T11:33:50.591Z,68.4
2018-07-16T11:34:40.907Z,68.4
2018-07-16T11:35:31.306Z,68.5
2018-07-16T11:36:20.826Z,68.6
2018-07-16T11:37:11.405Z,68.6
2018-07-16T11:38:00.925Z,68.5
2018-07-16T11:38:51.244Z,68.6
2018-07-16T11:39:41.035Z,68.6
2018-07-16T11:40:31.074Z,68.6
2018-07-16T11:41:21.461Z,68.6
2018-07-16T11:42:10.908Z,68.6
2018-07-16T11:43:01.841Z,68.6
2018-07-16T11:43:51.659Z,68.6
2018-07-16T11:44:41.944Z,68.6
2018-07-16T11:45:32.037Z,68.7
2018-07-16T11:46:22.843Z,68.8
2018-07-16T11:47:12.130Z,68.8
2018-07-16T11:48:01.975Z,68.8
2018-07-16T11:48:51.960Z,68.8
2018-07-16T11:49:42.303Z,68.8
2018-07-16T11:50:32.348Z,68.8
2018-07-16T11:51:22.439Z,68.8
2018-07-16T11:52:12.781Z,68.9
2018-07-16T11:53:02.326Z,68.9
2018-07-16T11:53:52.652Z,68.9
2018-07-16T11:54:42.462Z,68.9
2018-07-16T11:55:32.749Z,68.9
2018-07-16T11:56:22.300Z,69
2018-07-16T11:57:12.411Z,69
2018-07-16T11:58:02.985Z,69
2018-07-16T11:58:52.937Z,69.1
2018-07-16T11:59:42.844Z,69.1
2018-07-16T12:00:32.946Z,69.1
2018-07-16T12:01:22.966Z,69.1
2018-07-16T12:02:13.069Z,69.1
2018-07-16T12:03:03.094Z,69.1
2018-07-16T12:03:53.605Z,69.1
2018-07-16T12:04:43.483Z,69.1
2018-07-16T12:05:33.050Z,69.1
2018-07-16T12:06:23.661Z,69.1
2018-07-16T12:07:12.873Z,69.2
2018-07-16T12:08:03.779Z,69.2
2018-07-16T12:08:53.568Z,69.2
2018-07-16T12:09:43.402Z,69.2
2018-07-16T12:10:33.115Z,69.2
2018-07-16T12:11:23.199Z,69.3
2018-07-16T12:12:14.546Z,69.3
2018-07-16T12:13:03.955Z,69.3
2018-07-16T12:13:53.689Z,69.3
2018-07-16T12:14:43.761Z,69.3
2018-07-16T12:15:34.386Z,69.3
2018-07-16T12:16:23.612Z,69.3
2018-07-16T12:17:14.465Z,69.3
2018-07-16T12:18:04.560Z,69.3
2018-07-16T12:18:54.320Z,69.4
2018-07-16T12:19:43.838Z,69.3
2018-07-16T12:20:35.219Z,69.3
2018-07-16T12:21:24.248Z,69.4
2018-07-16T12:22:14.325Z,69.4
2018-07-16T12:23:04.682Z,69.3
2018-07-16T12:23:55.070Z,69.4
2018-07-16T12:24:44.767Z,69.4
2018-07-16T12:25:35.095Z,69.4
2018-07-16T12:26:25.235Z,69.4
2018-07-16T12:27:15.252Z,69.4
2018-07-16T12:28:05.054Z,69.4
2018-07-16T12:28:55.086Z,69.4
2018-07-16T12:29:45.229Z,69.4
2018-07-16T12:30:35.507Z,69.4
2018-07-16T12:31:25.067Z,69.4
2018-07-16T12:32:15.640Z,69.3
2018-07-16T12:33:04.575Z,69.4
2018-07-16T12:33:55.200Z,69.4
2018-07-16T12:34:45.608Z,69.4
2018-07-16T12:35:35.642Z,69.4
2018-07-16T12:36:25.679Z,69.4
2018-07-16T12:37:15.737Z,69.4
2018-07-16T12:38:05.837Z,69.4
2018-07-16T12:38:56.128Z,69.4
2018-07-16T12:39:46.202Z,69.4
2018-07-16T12:40:35.756Z,69.4
2018-07-16T12:41:27.001Z,69.4
2018-07-16T12:42:16.400Z,69.4
2018-07-16T12:43:06.212Z,69.4
2018-07-16T12:43:56.628Z,69.4
2018-07-16T12:44:46.325Z,69.4
2018-07-16T12:45:36.637Z,69.4
2018-07-16T12:46:26.273Z,69.4
2018-07-16T12:47:16.835Z,69.4
2018-07-16T12:48:07.105Z,69.4
2018-07-16T12:48:56.474Z,69.4
2018-07-16T12:49:46.977Z,69.4
2018-07-16T12:50:37.023Z,69.4
2018-07-16T12:51:26.647Z,69.3
2018-07-16T12:52:17.233Z,69.3
2018-07-16T12:53:06.131Z,69.3
2018-07-16T12:53:56.755Z,69.3
2018-07-16T12:54:47.372Z,69.3
2018-07-16T12:55:38.936Z,69.3
2018-07-16T12:56:26.937Z,69.3
2018-07-16T12:57:18.571Z,69.3
2018-07-16T12:58:07.652Z,69.3
2018-07-16T12:58:56.320Z,69.2
2018-07-16T12:59:47.208Z,69.3
2018-07-16T13:00:37.595Z,69.2
2018-07-16T13:01:27.903Z,69.2
2018-07-16T13:02:17.953Z,69.2
2018-07-16T13:03:08.052Z,69.2
2018-07-16T13:03:58.133Z,69.2
2018-07-16T13:04:47.864Z,69.1
2018-07-16T13:05:37.644Z,69.1
2018-07-16T13:06:28.308Z,69.1
2018-07-16T13:07:18.377Z,69.1
2018-07-16T13:08:07.886Z,69
2018-07-16T13:08:58.232Z,69
2018-07-16T13:09:48.303Z,68.9
2018-07-16T13:10:38.639Z,68.9
2018-07-16T13:11:28.380Z,68.9
2018-07-16T13:12:18.719Z,68.9
2018-07-16T13:13:08.790Z,68.9
2018-07-16T13:13:58.321Z,68.8
2018-07-16T13:14:48.612Z,68.8
2018-07-16T13:15:38.715Z,68.8
2018-07-16T13:16:28.526Z,68.8
2018-07-16T13:17:18.847Z,68.7
2018-07-16T13:18:08.338Z,68.7
2018-07-16T13:18:58.719Z,68.6
2018-07-16T13:19:48.734Z,68.6
2018-07-16T13:20:38.803Z,68.6
2018-07-16T13:21:29.464Z,68.5
2018-07-16T13:22:19.571Z,68.5
2018-07-16T13:23:08.590Z,68.4
2018-07-16T13:23:59.635Z,68.4
2018-07-16T13:24:49.434Z,68.4
2018-07-16T13:25:39.494Z,68.4
2018-07-16T13:26:29.288Z,68.3
2018-07-16T13:27:19.649Z,68.3
2018-07-16T13:28:09.714Z,68.3
2018-07-16T13:28:59.762Z,68.2
2018-07-16T13:29:50.277Z,68.1
2018-07-16T13:30:39.599Z,68.1
2018-07-16T13:31:29.934Z,68.1
2018-07-16T13:32:20.021Z,68
2018-07-16T13:33:09.860Z,68
2018-07-16T13:34:00.415Z,67.9
2018-07-16T13:34:49.674Z,67.9
2018-07-16T13:35:40.569Z,67.9
2018-07-16T13:36:30.061Z,67.8
2018-07-16T13:37:20.516Z,67.8
2018-07-16T13:38:10.486Z,67.8
2018-07-16T13:39:00.556Z,67.7
2018-07-16T13:39:50.606Z,67.7
2018-07-16T13:40:40.668Z,67.6
2018-07-16T13:41:31.011Z,67.6
2018-07-16T13:42:21.091Z,67.4
2018-07-16T13:43:10.644Z,67.4
2018-07-16T13:44:01.003Z,67.4
2018-07-16T13:44:50.985Z,67.3
2018-07-16T13:45:40.768Z,67.3
2018-07-16T13:46:32.880Z,67.3
2018-07-16T13:47:21.225Z,67.1
2018-07-16T13:48:11.228Z,67.1
2018-07-16T13:49:01.296Z,67.1
2018-07-16T13:49:51.373Z,66.9
2018-07-16T13:50:41.825Z,66.9
2018-07-16T13:51:31.471Z,66.8
2018-07-16T13:52:21.857Z,66.8
2018-07-16T13:53:11.623Z,66.8
2018-07-16T13:54:01.438Z,66.7
2018-07-16T13:54:51.319Z,66.6
2018-07-16T13:55:42.252Z,66.6
2018-07-16T13:56:31.880Z,66.5
2018-07-16T13:57:22.325Z,66.4
2018-07-16T13:58:11.771Z,66.4
2018-07-16T13:59:01.814Z,66.3
2018-07-16T13:59:52.170Z,66.3
2018-07-16T14:00:42.217Z,66.2
2018-07-16T14:01:32.263Z,66.1
2018-07-16T14:02:21.506Z,66.1
2018-07-16T14:03:12.744Z,66
2018-07-16T14:04:02.201Z,66
2018-07-16T14:04:51.740Z,65.9
2018-07-16T14:05:42.891Z,65.8
2018-07-16T14:06:32.967Z,65.8
2018-07-16T14:07:22.700Z,65.7
2018-07-16T14:08:13.062Z,65.6
2018-07-16T14:09:02.889Z,65.5
2018-07-16T14:09:53.222Z,65.4
2018-07-16T14:10:43.265Z,65.4
2018-07-16T14:11:32.793Z,65.3
2018-07-16T14:12:23.793Z,65.3
2018-07-16T14:13:12.455Z,65.2
2018-07-16T14:14:03.553Z,65.1
2018-07-16T14:14:53.297Z,65.1
2018-07-16T14:15:43.670Z,64.9
2018-07-16T14:16:33.427Z,64.9
2018-07-16T14:17:22.988Z,64.8
2018-07-16T14:18:13.560Z,64.8
2018-07-16T14:19:03.417Z,64.7
2018-07-16T14:19:53.426Z,64.6
2018-07-16T14:20:43.500Z,64.5
2018-07-16T14:21:33.795Z,64.4
2018-07-16T14:22:23.873Z,64.3
2018-07-16T14:23:14.219Z,64.3
2018-07-16T14:24:04.275Z,64.2
2018-07-16T14:24:54.115Z,64.1
2018-07-16T14:25:44.466Z,64
2018-07-16T14:26:34.023Z,63.9
2018-07-16T14:27:24.019Z,63.9
2018-07-16T14:28:14.628Z,63.8
2018-07-16T14:29:04.682Z,63.7
2018-07-16T14:29:54.770Z,63.6
2018-07-16T14:30:44.842Z,63.6
2018-07-16T14:31:34.611Z,63.4
2018-07-16T14:32:24.642Z,63.4
2018-07-16T14:33:14.765Z,63.3
2018-07-16T14:34:05.058Z,63.2
2018-07-16T14:34:54.846Z,63.1
2018-07-16T14:35:45.200Z,63
2018-07-16T14:36:34.421Z,62.9
2018-07-16T14:37:25.106Z,62.8
2018-07-16T14:38:15.102Z,62.8
2018-07-16T14:39:05.201Z,62.7
2018-07-16T14:39:56.307Z,62.6
2018-07-16T14:40:45.320Z,62.5
2018-07-16T14:41:34.910Z,62.4
2018-07-16T14:42:25.183Z,62.3
2018-07-16T14:43:15.790Z,62.2
2018-07-16T14:44:05.859Z,62.1
2018-07-16T14:44:54.925Z,61.8
2018-07-16T14:45:45.443Z,61.5
2018-07-16T14:46:35.500Z,61.4
2018-07-16T14:47:26.254Z,61.2
2018-07-16T14:48:16.172Z,61
2018-07-16T14:49:05.701Z,60.8
2018-07-16T14:49:55.770Z,60.4
2018-07-16T14:50:46.111Z,59.9
2018-07-16T14:51:36.162Z,59.3
2018-07-16T14:52:25.367Z,58.8
2018-07-16T14:53:16.554Z,58.3
2018-07-16T14:54:06.350Z,57.8
2018-07-16T14:54:55.868Z,57.3
2018-07-16T14:55:46.480Z,56.6
2018-07-16T14:56:36.608Z,55.5
2018-07-16T14:57:26.868Z,54.7
2018-07-16T14:58:16.941Z,53.8